(°C)
14°
13°
12°
12°
11°
11°
11°
(°C)
10°
ЗСЗ
ЗСЗ
ЗСЗ
ЗСЗ
ЗСЗ
ЗСЗ
З
(км/ч)
13-32
16-29
13-24
14-26
15-29
15-28
15-26
(мм)
0
0
0
0
0
0
0
(%)
12
4
3
3
2
1
0

Высота солнцестояния

/
sun-icon
UV 2
07:22
19:00
Прибывающая луна (83°)
15:45
22:17

METAR для Bordenau (ETNW)

Время Условия Температура/
Точка росы
Ветер Видимость Погода Облачность Давление Изменить Необработанный
VFR 14°C / 10°C 280º 7kt >10km - Few Clouds 2000ft
Scattered Clouds 6000ft
1016 - ETNW 021620Z 28007KT 9999 FEW020 SCT060 14/10 Q1016 BLU+
VFR 14°C / 10°C 290º 9kt >10km - Few Clouds 1500ft
Few Clouds 2000ft
Scattered Clouds 6000ft
1016 - ETNW 021520Z 29009KT 9999 FEW015 FEW020CB SCT060 14/10 Q1016 BLU+
VFR 14°C / 11°C 320º 14kt Gust 24kt >10km in the Vicinity Showers Vertical Visibility of 0ft.
Scattered Clouds 2000ft
Broken Clouds 6000ft
1016 - ETNW 021450Z 32014G24KT 9999 VCSH FEW015 SCT020CB BKN060 14/11 Q1016 BLU
MVFR 15°C / 10°C 300º 14kt Gust 28kt 9000m Light Showers Rain 3.00mm precipitation Vertical Visibility of 0ft.
Broken Clouds 2000ft
1016 - ETNW 021440Z 30014G28KT 9000 -SHRA FEW015 BKN020CB 15/10 Q1016 WHT
VFR 17°C / 11°C 290º 12kt >10km in the Vicinity Showers Vertical Visibility of 0ft.
Broken Clouds 7500ft
1015 - ETNW 021420Z 29012KT 9999 VCSH FEW028CB BKN075 17/11 Q1015 BLU
VFR 15°C / 12°C 280º 9kt >10km - Few Clouds 1500ft
Scattered Clouds 8000ft
1015 - ETNW 021320Z 28009KT 9999 FEW015 SCT080 15/12 Q1015 BLU+
VFR 15°C / 13°C 300º 13kt 9000m in the Vicinity Showers Vertical Visibility of 0ft.
Few Clouds 2000ft
Scattered Clouds 10000ft
1015 - ETNW 021220Z 30013KT 9000 VCSH FEW010 FEW020CB SCT100 15/13 Q1015 BLU+
MVFR 14°C / 12°C 320º 12kt 8000m Light Showers Rain 3.00mm precipitation Vertical Visibility of 0ft.
Broken Clouds 2500ft
1015 - ETNW 021120Z 32012KT 8000 -SHRA FEW015 BKN025TCU 14/12 Q1015 RESHRA BLU
MVFR 15°C / 11°C 300º 15kt 6000m Showers Rain 3.00mm precipitation Vertical Visibility of 0ft.
Broken Clouds 2500ft
1015 - ETNW 021110Z 30015KT 6000 SHRA FEW015 BKN025TCU 15/11 Q1015 WHT
VFR 17°C / 11°C 290º 13kt >10km - Scattered Clouds 2400ft
Scattered Clouds 27000ft
1014 - ETNW 021020Z 29013KT 9999 SCT024 SCT270 17/11 Q1014 BLU+
VFR 15°C / 11°C 280º 13kt >10km - Scattered Clouds 1600ft
Scattered Clouds 27000ft
1014 - ETNW 020920Z 28013KT 9999 SCT016 SCT270 15/11 Q1014 BLU+
VFR 14°C / 12°C 270º 12kt >10km - Scattered Clouds 1400ft 1014 - ETNW 020820Z 27012KT 9999 SCT014 14/12 Q1014 BLU+
VFR 13°C / 12°C 260º 10kt >10km - Few Clouds 3000ft
Scattered Clouds 7000ft
1013 - ETNW 020720Z 26010KT 9999 FEW030 SCT070 13/12 Q1013 BLU+
VFR 12°C / 11°C 250º 10kt >10km - Few Clouds 3000ft
Broken Clouds 7000ft
1012 - ETNW 020620Z 25010KT 9999 FEW030 BKN070 12/11 Q1012 BLU
VFR 12°C / 11°C 250º 11kt >10km - Few Clouds 3000ft
Scattered Clouds 10000ft
1012 - ETNW 020520Z 25011KT 9999 FEW030TCU SCT100 12/11 Q1012 BLU+
VFR 12°C / 11°C 250º 13kt 9000m Light Showers Rain 3.00mm precipitation Vertical Visibility of 0ft.
Scattered Clouds 3000ft
Broken Clouds 6000ft
1012 - ETNW 020450Z 25013KT 9000 -SHRA FEW010 SCT030TCU BKN060 12/11 Q1012 BLU
MVFR 12°C / 11°C 260º 12kt 7000m Light Showers Rain 3.00mm precipitation Vertical Visibility of 0ft.
Broken Clouds 3000ft
1012 - ETNW 020435Z 26012KT 7000 -SHRA FEW010 BKN030TCU 12/11 Q1012 WHT
VFR 12°C / 11°C 260º 12kt >10km Light Showers Rain 3.00mm precipitation Vertical Visibility of 0ft.
Broken Clouds 8000ft
1012 - ETNW 020420Z 26012KT 9999 -SHRA SCT030TCU BKN080 12/11 Q1012 BLU
VFR 12°C / 11°C 260º 11kt >10km - Broken Clouds 7600ft 1012 - ETNW 020320Z 26011KT 9999 BKN076 12/11 Q1012 BLU
VFR 12°C / 11°C 250º 12kt >10km - Few Clouds 7000ft 1012 - ETNW 020220Z 25012KT 9999 FEW070 12/11 Q1012 BLU+
VFR 12°C / 11°C 260º 10kt >10km - Scattered Clouds 3200ft
Broken Clouds 7000ft
1012 - ETNW 020120Z 26010KT 9999 SCT032CB BKN070 12/11 Q1012 BLU
VFR 12°C / 11°C 300º 7kt >10km Light Showers Rain 3.00mm precipitation Vertical Visibility of 0ft.
Broken Clouds 7000ft
1011 - ETNW 020020Z 30007KT 9999 -SHRA SCT032 BKN070 12/11 Q1011 BLU
VFR 11°C / 10°C 240º 13kt >10km - Few Clouds 7000ft 1011 - ETNW 012320Z 24013KT 9999 FEW070 11/10 Q1011 BLU+
VFR 12°C / 10°C 260º 8kt >10km - Few Clouds 3000ft 1011 - ETNW 012220Z 26008KT 9999 FEW030 12/10 Q1011 BLU+

VFR

14°C / 10°C

[Больше]
Ветер 280º 7kt
Видимость >10km
Погода -
Облачность Few Clouds 2000ft
Scattered Clouds 6000ft
Давление 1016
Изменить -
Необработанный ETNW 021620Z 28007KT 9999 FEW020 SCT060 14/10 Q1016 BLU+

VFR

14°C / 10°C

[Больше]
Ветер 290º 9kt
Видимость >10km
Погода -
Облачность Few Clouds 1500ft
Few Clouds 2000ft
Scattered Clouds 6000ft
Давление 1016
Изменить -
Необработанный ETNW 021520Z 29009KT 9999 FEW015 FEW020CB SCT060 14/10 Q1016 BLU+

VFR

14°C / 11°C

[Больше]
Ветер 320º 14kt Gust 24kt
Видимость >10km
Погода in the Vicinity Showers
Облачность Vertical Visibility of 0ft.
Scattered Clouds 2000ft
Broken Clouds 6000ft
Давление 1016
Изменить -
Необработанный ETNW 021450Z 32014G24KT 9999 VCSH FEW015 SCT020CB BKN060 14/11 Q1016 BLU

MVFR

15°C / 10°C

[Больше]
Ветер 300º 14kt Gust 28kt
Видимость 9000m
Погода Light Showers Rain 3.00mm precipitation
Облачность Vertical Visibility of 0ft.
Broken Clouds 2000ft
Давление 1016
Изменить -
Необработанный ETNW 021440Z 30014G28KT 9000 -SHRA FEW015 BKN020CB 15/10 Q1016 WHT

VFR

17°C / 11°C

[Больше]
Ветер 290º 12kt
Видимость >10km
Погода in the Vicinity Showers
Облачность Vertical Visibility of 0ft.
Broken Clouds 7500ft
Давление 1015
Изменить -
Необработанный ETNW 021420Z 29012KT 9999 VCSH FEW028CB BKN075 17/11 Q1015 BLU

VFR

15°C / 12°C

[Больше]
Ветер 280º 9kt
Видимость >10km
Погода -
Облачность Few Clouds 1500ft
Scattered Clouds 8000ft
Давление 1015
Изменить -
Необработанный ETNW 021320Z 28009KT 9999 FEW015 SCT080 15/12 Q1015 BLU+

VFR

15°C / 13°C

[Больше]
Ветер 300º 13kt
Видимость 9000m
Погода in the Vicinity Showers
Облачность Vertical Visibility of 0ft.
Few Clouds 2000ft
Scattered Clouds 10000ft
Давление 1015
Изменить -
Необработанный ETNW 021220Z 30013KT 9000 VCSH FEW010 FEW020CB SCT100 15/13 Q1015 BLU+

MVFR

14°C / 12°C

[Больше]
Ветер 320º 12kt
Видимость 8000m
Погода Light Showers Rain 3.00mm precipitation
Облачность Vertical Visibility of 0ft.
Broken Clouds 2500ft
Давление 1015
Изменить -
Необработанный ETNW 021120Z 32012KT 8000 -SHRA FEW015 BKN025TCU 14/12 Q1015 RESHRA BLU

MVFR

15°C / 11°C

[Больше]
Ветер 300º 15kt
Видимость 6000m
Погода Showers Rain 3.00mm precipitation
Облачность Vertical Visibility of 0ft.
Broken Clouds 2500ft
Давление 1015
Изменить -
Необработанный ETNW 021110Z 30015KT 6000 SHRA FEW015 BKN025TCU 15/11 Q1015 WHT

VFR

17°C / 11°C

[Больше]
Ветер 290º 13kt
Видимость >10km
Погода -
Облачность Scattered Clouds 2400ft
Scattered Clouds 27000ft
Давление 1014
Изменить -
Необработанный ETNW 021020Z 29013KT 9999 SCT024 SCT270 17/11 Q1014 BLU+

VFR

15°C / 11°C

[Больше]
Ветер 280º 13kt
Видимость >10km
Погода -
Облачность Scattered Clouds 1600ft
Scattered Clouds 27000ft
Давление 1014
Изменить -
Необработанный ETNW 020920Z 28013KT 9999 SCT016 SCT270 15/11 Q1014 BLU+

VFR

14°C / 12°C

[Больше]
Ветер 270º 12kt
Видимость >10km
Погода -
Облачность Scattered Clouds 1400ft
Давление 1014
Изменить -
Необработанный ETNW 020820Z 27012KT 9999 SCT014 14/12 Q1014 BLU+

VFR

13°C / 12°C

[Больше]
Ветер 260º 10kt
Видимость >10km
Погода -
Облачность Few Clouds 3000ft
Scattered Clouds 7000ft
Давление 1013
Изменить -
Необработанный ETNW 020720Z 26010KT 9999 FEW030 SCT070 13/12 Q1013 BLU+

VFR

12°C / 11°C

[Больше]
Ветер 250º 10kt
Видимость >10km
Погода -
Облачность Few Clouds 3000ft
Broken Clouds 7000ft
Давление 1012
Изменить -
Необработанный ETNW 020620Z 25010KT 9999 FEW030 BKN070 12/11 Q1012 BLU

VFR

12°C / 11°C

[Больше]
Ветер 250º 11kt
Видимость >10km
Погода -
Облачность Few Clouds 3000ft
Scattered Clouds 10000ft
Давление 1012
Изменить -
Необработанный ETNW 020520Z 25011KT 9999 FEW030TCU SCT100 12/11 Q1012 BLU+

VFR

12°C / 11°C

[Больше]
Ветер 250º 13kt
Видимость 9000m
Погода Light Showers Rain 3.00mm precipitation
Облачность Vertical Visibility of 0ft.
Scattered Clouds 3000ft
Broken Clouds 6000ft
Давление 1012
Изменить -
Необработанный ETNW 020450Z 25013KT 9000 -SHRA FEW010 SCT030TCU BKN060 12/11 Q1012 BLU

MVFR

12°C / 11°C

[Больше]
Ветер 260º 12kt
Видимость 7000m
Погода Light Showers Rain 3.00mm precipitation
Облачность Vertical Visibility of 0ft.
Broken Clouds 3000ft
Давление 1012
Изменить -
Необработанный ETNW 020435Z 26012KT 7000 -SHRA FEW010 BKN030TCU 12/11 Q1012 WHT

VFR

12°C / 11°C

[Больше]
Ветер 260º 12kt
Видимость >10km
Погода Light Showers Rain 3.00mm precipitation
Облачность Vertical Visibility of 0ft.
Broken Clouds 8000ft
Давление 1012
Изменить -
Необработанный ETNW 020420Z 26012KT 9999 -SHRA SCT030TCU BKN080 12/11 Q1012 BLU

VFR

12°C / 11°C

[Больше]
Ветер 260º 11kt
Видимость >10km
Погода -
Облачность Broken Clouds 7600ft
Давление 1012
Изменить -
Необработанный ETNW 020320Z 26011KT 9999 BKN076 12/11 Q1012 BLU

VFR

12°C / 11°C

[Больше]
Ветер 250º 12kt
Видимость >10km
Погода -
Облачность Few Clouds 7000ft
Давление 1012
Изменить -
Необработанный ETNW 020220Z 25012KT 9999 FEW070 12/11 Q1012 BLU+

VFR

12°C / 11°C

[Больше]
Ветер 260º 10kt
Видимость >10km
Погода -
Облачность Scattered Clouds 3200ft
Broken Clouds 7000ft
Давление 1012
Изменить -
Необработанный ETNW 020120Z 26010KT 9999 SCT032CB BKN070 12/11 Q1012 BLU

VFR

12°C / 11°C

[Больше]
Ветер 300º 7kt
Видимость >10km
Погода Light Showers Rain 3.00mm precipitation
Облачность Vertical Visibility of 0ft.
Broken Clouds 7000ft
Давление 1011
Изменить -
Необработанный ETNW 020020Z 30007KT 9999 -SHRA SCT032 BKN070 12/11 Q1011 BLU

VFR

11°C / 10°C

[Больше]
Ветер 240º 13kt
Видимость >10km
Погода -
Облачность Few Clouds 7000ft
Давление 1011
Изменить -
Необработанный ETNW 012320Z 24013KT 9999 FEW070 11/10 Q1011 BLU+

VFR

12°C / 10°C

[Больше]
Ветер 260º 8kt
Видимость >10km
Погода -
Облачность Few Clouds 3000ft
Давление 1011
Изменить -
Необработанный ETNW 012220Z 26008KT 9999 FEW030 12/10 Q1011 BLU+

TAF для Bordenau (ETNW)

From till


From till Wind 280º 10kt. Visibility 10km or more. Few Clouds 2500ft.

Необработанный: TAF ETNW 021603Z 0217/0317 28010KT 9999 NSW FEW025 BY ETGL

rainNOW: Прогноз дождя для Bordenau и окрестностей (радиус 25 км)

0.0 мм
0.0 мм
0.0 мм
0.0 мм
0.0 мм
0.0 мм
0.0 мм
0.0 мм
0.0 мм
0.0 мм
0.0 мм
0.0 мм

Радар Bordenau

Морось
Незначительные
Умеренные
Сильные
Очень Сильные
Град

Индикатор местности находится на Bordenau. Анимация показывает радар осадков за последний час, а также прогноз погоды для 2h. Морось или небольшой снег могут быть невидимы для радара. Интенсивность осадков имеет цветовую кодировку - от светло-голубого до оранжевого.
Copyright 2022 Deutscher Wetterdienst / meteoblue.

Текущие спутниковые изображения и снимки дождя для Bordenau, Германия

Указатель местности находится на Bordenau. [Больше]

Спутниковое изображение в реальном времени сочетает в себе видимый свет в дневное время с инфракрасным излучением в ночное время. Ночью изображение получается не темным, так как инфракрасное излучение может обнаружить разницу температур. К сожалению, низкие облака и туман трудно отличить от температуры у поверхности земли и поэтому могут быть почти незаметны ночью. Спутниковые снимки Meteosat для Европы обновляются каждые 5 минут в режиме реального времени.Снимки GOES-16/GOES-17 (Северная и Южная Америка) и Химавари (Азия) обновляются каждые 10 минут.

Осадки оцениваются по данным радаров и спутников. Оценка осадков со спутников менее точна ночью, чем днем. Оранжевыми крестами отмечаются места,где обнаруживается молния (болееЕвропа).

Копирайт 2022 EUMETSAT / meteoblue. Данные о молниях предоставляются со стороны nowcast.

Обратно к последним данным